createdAt,value
2018-06-01T00:01:17.091Z,22.50
2018-06-01T00:03:44.657Z,22.50
2018-06-01T00:06:12.218Z,22.50
2018-06-01T00:08:39.725Z,22.50
2018-06-01T00:11:07.213Z,22.50
2018-06-01T00:13:34.713Z,22.40
2018-06-01T00:16:02.220Z,22.40
2018-06-01T00:18:29.744Z,22.50
2018-06-01T00:20:58.020Z,22.40
2018-06-01T00:23:25.596Z,22.40
2018-06-01T00:25:53.101Z,22.40
2018-06-01T00:28:20.621Z,22.40
2018-06-01T00:30:48.113Z,22.40
2018-06-01T00:33:16.392Z,22.40
2018-06-01T00:35:44.671Z,22.40
2018-06-01T00:38:13.041Z,22.30
2018-06-01T00:40:40.551Z,22.30
2018-06-01T00:43:08.041Z,22.30
2018-06-01T00:45:35.545Z,22.30
2018-06-01T00:48:03.905Z,22.30
2018-06-01T00:50:31.395Z,22.30
2018-06-01T00:52:59.664Z,22.30
2018-06-01T00:55:27.157Z,22.30
2018-06-01T00:57:54.669Z,22.30
2018-06-01T01:00:22.162Z,22.30
2018-06-01T01:02:49.675Z,22.30
2018-06-01T01:05:17.177Z,22.30
2018-06-01T01:07:44.750Z,22.30
2018-06-01T01:10:12.301Z,22.30
2018-06-01T01:12:39.793Z,22.50
2018-06-01T01:15:08.264Z,22.30
2018-06-01T01:17:35.778Z,22.40
2018-06-01T01:20:03.282Z,22.30
2018-06-01T01:22:30.767Z,22.30
2018-06-01T01:24:59.140Z,22.30
2018-06-01T01:27:26.694Z,22.30
2018-06-01T01:29:54.253Z,22.30
2018-06-01T01:32:21.822Z,22.30
2018-06-01T01:34:49.316Z,22.30
2018-06-01T01:37:29.656Z,22.30
2018-06-01T01:39:58.962Z,22.30
2018-06-01T01:42:26.544Z,22.30
2018-06-01T01:44:54.889Z,22.30
2018-06-01T01:47:22.484Z,22.30
2018-06-01T01:49:54.761Z,22.30
2018-06-01T01:52:22.301Z,22.30
2018-06-01T01:54:49.843Z,22.30
2018-06-01T01:57:17.446Z,22.30
2018-06-01T01:59:44.941Z,22.20
2018-06-01T02:02:13.201Z,22.30
2018-06-01T02:04:40.762Z,22.30
2018-06-01T02:07:08.273Z,22.30
2018-06-01T02:09:35.772Z,22.20
2018-06-01T02:12:03.273Z,22.30
2018-06-01T02:14:30.773Z,22.20
2018-06-01T02:16:58.290Z,22.20
2018-06-01T02:19:25.776Z,22.20
2018-06-01T02:21:54.022Z,22.20
2018-06-01T02:24:21.551Z,22.20
2018-06-01T02:26:49.054Z,22.20
2018-06-01T02:29:16.570Z,22.20
2018-06-01T02:31:44.088Z,22.20
2018-06-01T02:34:11.649Z,22.20
2018-06-01T02:36:39.214Z,22.20
2018-06-01T02:39:06.789Z,22.20
2018-06-01T02:41:34.353Z,22.20
2018-06-01T02:44:01.850Z,22.20
2018-06-01T02:46:30.208Z,22.20
2018-06-01T02:48:57.750Z,22.20
2018-06-01T02:51:25.325Z,22.20
2018-06-01T02:53:52.868Z,22.20
2018-06-01T02:56:20.354Z,22.10
2018-06-01T02:58:47.854Z,22.10
2018-06-01T03:01:16.210Z,22.10
2018-06-01T03:03:43.697Z,22.10
2018-06-01T03:06:12.045Z,22.10
2018-06-01T03:08:39.642Z,22.10
2018-06-01T03:11:07.898Z,22.10
2018-06-01T03:13:35.394Z,22.10
2018-06-01T03:16:03.750Z,22.10
2018-06-01T03:18:31.312Z,22.10
2018-06-01T03:20:59.574Z,22.10
2018-06-01T03:23:27.064Z,22.10
2018-06-01T03:25:54.648Z,22.10
2018-06-01T03:28:22.191Z,22.10
2018-06-01T03:30:49.770Z,22.00
2018-06-01T03:33:17.270Z,22.00
2018-06-01T03:35:44.762Z,22.00
2018-06-01T03:38:12.380Z,22.00
2018-06-01T03:40:39.866Z,22.00
2018-06-01T03:43:07.480Z,22.00
2018-06-01T03:45:35.056Z,22.00
2018-06-01T03:48:02.541Z,22.00
2018-06-01T03:50:30.800Z,22.00
2018-06-01T03:52:58.285Z,22.00
2018-06-01T03:55:26.590Z,22.00
2018-06-01T03:57:54.082Z,22.00
2018-06-01T04:00:21.678Z,22.00
2018-06-01T04:02:49.203Z,22.00
2018-06-01T04:05:16.674Z,22.00
2018-06-01T04:07:44.182Z,22.00
2018-06-01T04:10:11.735Z,22.00
2018-06-01T04:12:39.228Z,22.00
2018-06-01T04:15:07.589Z,22.00
2018-06-01T04:17:35.095Z,22.00
2018-06-01T04:20:02.630Z,22.00
2018-06-01T04:22:30.133Z,22.00
2018-06-01T04:24:57.649Z,22.00
2018-06-01T04:27:25.211Z,22.00
2018-06-01T04:29:52.797Z,22.00
2018-06-01T04:32:21.077Z,22.00
2018-06-01T04:34:49.347Z,22.00
2018-06-01T04:37:16.836Z,22.00
2018-06-01T04:39:45.197Z,22.00
2018-06-01T04:42:12.687Z,22.00
2018-06-01T04:44:40.225Z,22.00
2018-06-01T04:47:07.829Z,22.00
2018-06-01T04:49:35.354Z,22.00
2018-06-01T04:52:02.917Z,22.00
2018-06-01T04:54:30.430Z,22.10
2018-06-01T04:56:58.040Z,22.10
2018-06-01T04:59:25.633Z,22.00
2018-06-01T05:01:53.885Z,22.10
2018-06-01T05:04:21.383Z,22.10
2018-06-01T05:06:49.647Z,22.10
2018-06-01T05:09:17.921Z,22.10
2018-06-01T05:11:45.407Z,22.10
2018-06-01T05:14:13.678Z,22.10
2018-06-01T05:16:41.247Z,22.10
2018-06-01T05:19:08.739Z,22.20
2018-06-01T05:21:37.033Z,22.20
2018-06-01T05:24:04.545Z,22.20
2018-06-01T05:26:32.113Z,22.20
2018-06-01T05:28:59.599Z,22.20
2018-06-01T05:31:27.861Z,22.20
2018-06-01T05:33:55.421Z,22.20
2018-06-01T05:36:22.919Z,22.20
2018-06-01T05:38:51.283Z,22.20
2018-06-01T05:41:18.834Z,22.20
2018-06-01T05:43:46.361Z,22.30
2018-06-01T05:46:13.871Z,22.20
2018-06-01T05:48:41.363Z,22.30
2018-06-01T05:51:09.618Z,22.30
2018-06-01T05:53:37.133Z,22.30
2018-06-01T05:56:04.637Z,22.30
2018-06-01T05:58:32.152Z,22.30
2018-06-01T06:00:59.687Z,22.30
2018-06-01T06:03:27.965Z,22.30
2018-06-01T06:05:55.476Z,22.30
2018-06-01T06:08:22.961Z,22.30
2018-06-01T06:10:50.487Z,22.30
2018-06-01T06:13:17.989Z,22.30
2018-06-01T06:15:45.497Z,22.40
2018-06-01T06:18:13.762Z,22.40
2018-06-01T06:20:41.267Z,22.40
2018-06-01T06:23:08.853Z,22.40
2018-06-01T06:25:36.499Z,22.40
2018-06-01T06:28:04.843Z,22.40
2018-06-01T06:30:32.378Z,22.40
2018-06-01T06:32:59.878Z,22.40
2018-06-01T06:35:28.249Z,22.40
2018-06-01T06:37:55.748Z,22.40
2018-06-01T06:40:24.106Z,22.40
2018-06-01T06:42:51.599Z,22.40
2018-06-01T06:45:19.953Z,22.40
2018-06-01T06:47:48.233Z,22.40
2018-06-01T06:50:15.801Z,22.50
2018-06-01T06:52:43.285Z,22.50
2018-06-01T06:55:11.686Z,22.50
2018-06-01T06:57:39.927Z,22.50
2018-06-01T07:00:07.489Z,22.50
2018-06-01T07:02:35.057Z,22.50
2018-06-01T07:05:02.618Z,22.50
2018-06-01T07:07:30.128Z,22.60
2018-06-01T07:09:58.393Z,22.60
2018-06-01T07:12:26.686Z,22.60
2018-06-01T07:14:55.037Z,22.60
2018-06-01T07:17:22.604Z,22.60
2018-06-01T07:19:50.121Z,22.70
2018-06-01T07:22:17.625Z,22.70
2018-06-01T07:24:45.165Z,22.70
2018-06-01T07:27:12.662Z,22.70
2018-06-01T07:29:40.183Z,22.70
2018-06-01T07:32:07.699Z,22.80
2018-06-01T07:34:35.209Z,22.70
2018-06-01T07:37:02.837Z,22.80
2018-06-01T07:39:30.349Z,22.80
2018-06-01T07:41:57.860Z,22.80
2018-06-01T07:44:25.368Z,22.80
2018-06-01T07:46:52.870Z,22.80
2018-06-01T07:49:20.402Z,22.80
2018-06-01T07:51:47.926Z,22.80
2018-06-01T07:54:15.437Z,22.80
2018-06-01T07:56:42.952Z,22.80
2018-06-01T07:59:10.521Z,22.80
2018-06-01T08:01:38.039Z,22.90
2018-06-01T08:04:05.631Z,22.80
2018-06-01T08:06:33.148Z,22.90
2018-06-01T08:09:00.932Z,22.90
2018-06-01T08:11:28.452Z,22.90
2018-06-01T08:13:56.017Z,22.90
2018-06-01T08:16:24.292Z,22.90
2018-06-01T08:18:52.559Z,22.90
2018-06-01T08:21:20.114Z,22.90
2018-06-01T08:23:47.716Z,22.90
2018-06-01T08:26:15.228Z,22.90
2018-06-01T08:28:42.741Z,22.90
2018-06-01T08:31:10.258Z,22.90
2018-06-01T08:33:37.896Z,22.90
2018-06-01T08:36:06.171Z,22.90
2018-06-01T08:38:34.537Z,23.00
2018-06-01T08:41:02.110Z,23.00
2018-06-01T08:43:29.664Z,23.00
2018-06-01T08:45:57.168Z,23.00
2018-06-01T08:48:24.676Z,23.00
2018-06-01T08:50:52.186Z,23.10
2018-06-01T08:53:19.700Z,23.10
2018-06-01T08:55:47.210Z,23.10
2018-06-01T08:58:15.468Z,23.10
2018-06-01T09:00:43.047Z,23.10
2018-06-01T09:03:10.571Z,23.10
2018-06-01T09:05:38.062Z,23.10
2018-06-01T09:08:05.598Z,23.10
2018-06-01T09:10:33.093Z,23.00
2018-06-01T09:13:00.593Z,23.00
2018-06-01T09:15:28.948Z,23.00
2018-06-01T09:17:56.425Z,23.00
2018-06-01T09:20:24.841Z,23.00
2018-06-01T09:22:52.345Z,23.00
2018-06-01T09:25:19.924Z,23.00
2018-06-01T09:27:47.532Z,23.00
2018-06-01T09:30:15.028Z,23.00
2018-06-01T09:32:42.628Z,23.00
2018-06-01T09:35:10.193Z,23.00
2018-06-01T09:37:37.706Z,23.00
2018-06-01T09:40:05.227Z,23.00
2018-06-01T09:42:32.710Z,23.00
2018-06-01T09:45:01.064Z,23.10
2018-06-01T09:47:28.570Z,23.00
2018-06-01T09:49:56.089Z,23.10
2018-06-01T09:52:23.633Z,23.10
2018-06-01T09:54:51.118Z,23.10
2018-06-01T09:57:18.607Z,23.20
2018-06-01T09:59:46.881Z,23.20
2018-06-01T10:02:14.382Z,23.20
2018-06-01T10:04:41.878Z,23.20
2018-06-01T10:07:09.369Z,23.30
2018-06-01T10:09:36.890Z,23.30
2018-06-01T10:12:04.391Z,23.30
2018-06-01T10:14:31.886Z,23.30
2018-06-01T10:17:00.155Z,23.30
2018-06-01T10:19:28.516Z,23.30
2018-06-01T10:21:57.535Z,23.40
2018-06-01T10:24:25.808Z,23.40
2018-06-01T10:26:53.363Z,23.40
2018-06-01T10:29:20.885Z,23.40
2018-06-01T10:31:48.385Z,23.40
2018-06-01T10:34:15.981Z,23.40
2018-06-01T10:36:44.237Z,23.50
2018-06-01T10:39:11.737Z,23.50
2018-06-01T10:41:40.088Z,23.50
2018-06-01T10:44:07.607Z,23.50
2018-06-01T10:46:35.125Z,23.50
2018-06-01T10:49:02.682Z,23.50
2018-06-01T10:51:30.183Z,23.50
2018-06-01T10:53:58.539Z,23.50
2018-06-01T10:56:26.113Z,23.50
2018-06-01T10:58:53.666Z,23.50
2018-06-01T11:01:21.158Z,23.40
2018-06-01T11:03:49.510Z,23.40
2018-06-01T11:06:17.029Z,23.40
2018-06-01T11:08:44.521Z,23.40
2018-06-01T11:11:12.114Z,23.40
2018-06-01T11:13:39.600Z,23.40
2018-06-01T11:16:07.950Z,23.40
2018-06-01T11:18:35.437Z,23.40
2018-06-01T11:21:03.698Z,23.40
2018-06-01T11:23:31.216Z,23.40
2018-06-01T11:25:58.738Z,23.40
2018-06-01T11:28:26.308Z,23.40
2018-06-01T11:30:53.860Z,23.50
2018-06-01T11:33:21.432Z,23.50
2018-06-01T11:35:48.998Z,23.50
2018-06-01T11:38:16.509Z,23.50
2018-06-01T11:40:44.000Z,23.50
2018-06-01T11:43:11.598Z,23.60
2018-06-01T11:45:39.098Z,23.60
2018-06-01T11:48:06.618Z,23.60
2018-06-01T11:50:34.118Z,23.60
2018-06-01T11:53:01.656Z,23.60
2018-06-01T11:55:30.657Z,23.50
2018-06-01T11:57:59.135Z,23.50
2018-06-01T12:00:26.716Z,23.50
2018-06-01T12:02:54.244Z,23.50
2018-06-01T12:05:21.832Z,23.40
2018-06-01T12:07:49.394Z,23.40
2018-06-01T12:10:16.899Z,23.30
2018-06-01T12:12:45.174Z,23.30
2018-06-01T12:15:13.442Z,23.20
2018-06-01T12:17:40.994Z,23.20
2018-06-01T12:20:08.467Z,23.20
2018-06-01T12:22:35.976Z,23.20
2018-06-01T12:25:03.590Z,23.10
2018-06-01T12:27:31.158Z,23.10
2018-06-01T12:29:59.439Z,23.10
2018-06-01T12:32:26.939Z,23.10
2018-06-01T12:34:54.491Z,23.20
2018-06-01T12:37:22.851Z,23.20
2018-06-01T12:39:50.421Z,23.20
2018-06-01T12:42:17.912Z,23.30
2018-06-01T12:44:45.445Z,23.30
2018-06-01T12:47:12.974Z,23.30
2018-06-01T12:49:40.501Z,23.40
2018-06-01T12:52:08.773Z,23.40
2018-06-01T12:54:37.035Z,23.40
2018-06-01T12:57:04.525Z,23.40
2018-06-01T12:59:32.884Z,23.50
2018-06-01T13:02:00.408Z,23.40
2018-06-01T13:04:27.910Z,23.50
2018-06-01T13:06:55.455Z,23.50
2018-06-01T13:09:23.059Z,23.50
2018-06-01T13:11:50.563Z,23.50
2018-06-01T13:14:18.078Z,23.60
2018-06-01T13:16:45.647Z,23.60
2018-06-01T13:19:13.140Z,23.60
2018-06-01T13:21:41.409Z,23.60
2018-06-01T13:24:09.689Z,23.60
2018-06-01T13:26:37.251Z,23.60
2018-06-01T13:29:04.817Z,23.60
2018-06-01T13:31:33.079Z,23.60
2018-06-01T13:34:00.657Z,23.60
2018-06-01T13:36:28.181Z,23.60
2018-06-01T13:38:55.788Z,23.60
2018-06-01T13:41:23.294Z,23.60
2018-06-01T13:43:50.793Z,23.60
2018-06-01T13:46:18.277Z,23.50
2018-06-01T13:48:45.833Z,23.60
2018-06-01T13:51:13.416Z,23.50
2018-06-01T13:53:40.911Z,23.50
2018-06-01T13:56:08.407Z,23.50
2018-06-01T13:58:35.915Z,23.50
2018-06-01T14:01:03.478Z,23.50
2018-06-01T14:03:30.994Z,23.50
2018-06-01T14:05:58.607Z,23.60
2018-06-01T14:08:26.160Z,23.60
2018-06-01T14:10:53.663Z,23.60
2018-06-01T14:13:21.925Z,23.60
2018-06-01T14:15:49.483Z,23.60
2018-06-01T14:18:17.765Z,23.70
2018-06-01T14:20:45.342Z,23.60
2018-06-01T14:23:12.833Z,23.70
2018-06-01T14:25:40.335Z,23.70
2018-06-01T14:28:07.927Z,23.70
2018-06-01T14:30:35.431Z,23.70
2018-06-01T14:33:02.927Z,23.70
2018-06-01T14:35:30.411Z,23.70
2018-06-01T14:37:57.974Z,23.70
2018-06-01T14:40:25.593Z,23.80
2018-06-01T14:42:53.123Z,23.70
2018-06-01T14:45:20.603Z,23.80
2018-06-01T14:47:48.877Z,23.80
2018-06-01T14:50:17.241Z,23.80
2018-06-01T14:52:44.761Z,23.80
2018-06-01T14:55:12.251Z,23.80
2018-06-01T14:57:39.835Z,23.80
2018-06-01T15:00:07.398Z,23.80
2018-06-01T15:02:34.899Z,23.80
2018-06-01T15:05:03.169Z,23.80
2018-06-01T15:07:31.447Z,23.80
2018-06-01T15:09:59.013Z,23.80
2018-06-01T15:12:26.511Z,23.80
2018-06-01T15:14:54.036Z,23.80
2018-06-01T15:17:22.315Z,23.80
2018-06-01T15:19:49.811Z,23.80
2018-06-01T15:22:17.317Z,23.80
2018-06-01T15:24:44.904Z,23.80
2018-06-01T15:27:12.483Z,23.80
2018-06-01T15:29:40.763Z,23.80
2018-06-01T15:32:08.322Z,23.80
2018-06-01T15:34:35.892Z,23.80
2018-06-01T15:37:03.387Z,23.80
2018-06-01T15:39:30.877Z,23.80
2018-06-01T15:41:58.426Z,23.80
2018-06-01T15:44:25.942Z,23.80
2018-06-01T15:46:53.466Z,23.80
2018-06-01T15:49:21.016Z,23.80
2018-06-01T15:51:48.509Z,23.70
2018-06-01T15:54:16.031Z,23.70
2018-06-01T15:56:44.295Z,23.80
2018-06-01T15:59:11.836Z,23.80
2018-06-01T16:01:39.418Z,23.80
2018-06-01T16:04:06.913Z,23.80
2018-06-01T16:06:35.191Z,23.80
2018-06-01T16:09:03.453Z,23.80
2018-06-01T16:11:32.541Z,23.70
2018-06-01T16:14:00.121Z,23.70
2018-06-01T16:16:27.613Z,23.70
2018-06-01T16:18:55.258Z,23.70
2018-06-01T16:21:22.761Z,23.70
2018-06-01T16:23:50.245Z,23.60
2018-06-01T16:26:17.747Z,23.60
2018-06-01T16:28:45.249Z,23.60
2018-06-01T16:31:12.761Z,23.60
2018-06-01T16:33:40.253Z,23.60
2018-06-01T16:36:08.506Z,23.60
2018-06-01T16:38:36.021Z,23.60
2018-06-01T16:41:03.531Z,23.60
2018-06-01T16:43:31.054Z,23.50
2018-06-01T16:45:58.564Z,23.60
2018-06-01T16:48:26.857Z,23.50
2018-06-01T16:50:54.485Z,23.50
2018-06-01T16:53:21.984Z,23.50
2018-06-01T16:55:50.255Z,23.50
2018-06-01T16:58:17.825Z,23.50
2018-06-01T17:00:45.321Z,23.50
2018-06-01T17:03:13.680Z,23.40
2018-06-01T17:05:41.203Z,23.40
2018-06-01T17:08:08.744Z,23.40
2018-06-01T17:10:37.090Z,23.40
2018-06-01T17:13:04.587Z,23.40
2018-06-01T17:15:32.949Z,23.30
2018-06-01T17:18:00.511Z,23.30
2018-06-01T17:20:28.030Z,23.30
2018-06-01T17:22:55.513Z,23.30
2018-06-01T17:25:23.101Z,23.30
2018-06-01T17:27:50.614Z,23.30
2018-06-01T17:30:18.115Z,23.30
2018-06-01T17:32:45.707Z,23.30
2018-06-01T17:35:13.209Z,23.30
2018-06-01T17:37:40.733Z,23.30
2018-06-01T17:40:08.305Z,23.30
2018-06-01T17:42:35.827Z,23.30
2018-06-01T17:45:03.375Z,23.30
2018-06-01T17:47:30.867Z,23.20
2018-06-01T17:49:58.460Z,23.20
2018-06-01T17:52:26.028Z,23.20
2018-06-01T17:54:53.602Z,23.20
2018-06-01T17:57:21.141Z,23.20
2018-06-01T17:59:48.634Z,23.20
2018-06-01T18:02:16.896Z,23.10
2018-06-01T18:04:44.388Z,23.10
2018-06-01T18:07:12.658Z,23.10
2018-06-01T18:09:40.172Z,23.10
2018-06-01T18:12:07.772Z,23.10
2018-06-01T18:14:36.783Z,23.00
2018-06-01T18:17:04.290Z,23.00
2018-06-01T18:19:31.819Z,23.00
2018-06-01T18:21:59.368Z,23.00
2018-06-01T18:24:26.945Z,23.00
2018-06-01T18:26:54.522Z,23.00
2018-06-01T18:29:22.798Z,23.00
2018-06-01T18:31:51.082Z,22.90
2018-06-01T18:34:19.371Z,22.90
2018-06-01T18:36:47.749Z,22.90
2018-06-01T18:39:16.123Z,22.90
2018-06-01T18:41:44.417Z,22.90
2018-06-01T18:44:12.782Z,22.80
2018-06-01T18:46:40.320Z,22.80
2018-06-01T18:49:07.846Z,22.80
2018-06-01T18:51:36.107Z,22.80
2018-06-01T18:54:03.604Z,22.80
2018-06-01T18:56:31.106Z,22.80
2018-06-01T18:58:58.626Z,22.80
2018-06-01T19:01:26.144Z,22.80
2018-06-01T19:03:53.636Z,22.80
2018-06-01T19:06:22.020Z,22.80
2018-06-01T19:08:50.294Z,22.80
2018-06-01T19:11:18.568Z,22.80
2018-06-01T19:13:46.093Z,22.80
2018-06-01T19:16:13.596Z,22.80
2018-06-01T19:18:41.176Z,22.80
2018-06-01T19:21:08.686Z,22.70
2018-06-01T19:23:36.207Z,22.70
2018-06-01T19:26:04.483Z,22.70
2018-06-01T19:28:32.046Z,22.70
2018-06-01T19:30:59.617Z,22.70
2018-06-01T19:33:27.183Z,22.70
2018-06-01T19:35:54.750Z,22.70
2018-06-01T19:38:23.027Z,22.70
2018-06-01T19:40:50.544Z,22.60
2018-06-01T19:43:18.058Z,22.60
2018-06-01T19:45:45.568Z,22.60
2018-06-01T19:48:13.090Z,22.60
2018-06-01T19:50:40.603Z,22.60
2018-06-01T19:53:08.098Z,22.60
2018-06-01T19:55:35.690Z,22.60
2018-06-01T19:58:03.968Z,22.60
2018-06-01T20:00:32.266Z,22.60
2018-06-01T20:03:00.655Z,22.60
2018-06-01T20:05:28.338Z,22.60
2018-06-01T20:07:55.890Z,22.50
2018-06-01T20:10:24.186Z,22.30
2018-06-01T20:12:51.729Z,22.30
2018-06-01T20:15:20.032Z,22.10
2018-06-01T20:17:47.596Z,22.10
2018-06-01T20:20:15.112Z,22.10
2018-06-01T20:22:42.633Z,22.10
2018-06-01T20:25:10.155Z,22.10
2018-06-01T20:27:38.430Z,22.10
2018-06-01T20:30:05.928Z,22.00
2018-06-01T20:32:33.445Z,22.10
2018-06-01T20:35:00.956Z,22.10
2018-06-01T20:37:29.326Z,22.00
2018-06-01T20:39:57.603Z,22.00
2018-06-01T20:42:25.177Z,21.90
2018-06-01T20:44:53.488Z,21.90
2018-06-01T20:47:21.005Z,21.90
2018-06-01T20:49:49.379Z,21.80
2018-06-01T20:52:16.912Z,21.80
2018-06-01T20:54:44.449Z,21.70
2018-06-01T20:57:12.811Z,21.70
2018-06-01T20:59:40.316Z,21.70
2018-06-01T21:02:07.847Z,21.70
2018-06-01T21:04:35.341Z,21.70
2018-06-01T21:07:02.870Z,21.70
2018-06-01T21:09:30.381Z,21.70
2018-06-01T21:11:57.916Z,21.70
2018-06-01T21:14:26.232Z,21.70
2018-06-01T21:16:53.727Z,21.70
2018-06-01T21:19:21.241Z,21.70
2018-06-01T21:21:48.746Z,21.60
2018-06-01T21:24:16.246Z,21.60
2018-06-01T21:26:43.798Z,21.60
2018-06-01T21:29:11.304Z,21.60
2018-06-01T21:31:38.803Z,21.60
2018-06-01T21:34:06.311Z,21.60
2018-06-01T21:36:34.671Z,21.60
2018-06-01T21:39:02.247Z,21.60
2018-06-01T21:41:29.719Z,21.60
2018-06-01T21:43:57.990Z,21.50
2018-06-01T21:46:25.547Z,21.50
2018-06-01T21:48:53.042Z,21.50
2018-06-01T21:51:21.307Z,21.50
2018-06-01T21:53:49.620Z,21.50
2018-06-01T21:56:17.123Z,21.40
2018-06-01T21:58:44.712Z,21.50
2018-06-01T22:01:12.203Z,21.50
2018-06-01T22:03:40.553Z,21.40
2018-06-01T22:06:08.064Z,21.40
2018-06-01T22:08:36.399Z,21.40
2018-06-01T22:11:03.986Z,21.40
2018-06-01T22:13:31.554Z,21.40
2018-06-01T22:15:59.123Z,21.40
2018-06-01T22:18:27.499Z,21.30
2018-06-01T22:20:55.761Z,21.40
2018-06-01T22:23:23.266Z,21.40
2018-06-01T22:25:51.615Z,21.40
2018-06-01T22:28:19.934Z,21.40
2018-06-01T22:30:47.435Z,21.40
2018-06-01T22:33:15.061Z,21.40
2018-06-01T22:35:43.420Z,21.40
2018-06-01T22:38:10.985Z,21.40
2018-06-01T22:40:38.506Z,21.40
2018-06-01T22:43:06.047Z,21.50
2018-06-01T22:45:34.402Z,21.50
2018-06-01T22:48:01.898Z,21.50
2018-06-01T22:50:29.391Z,21.50
2018-06-01T22:52:56.923Z,21.50
2018-06-01T22:55:25.167Z,21.50
2018-06-01T22:57:52.832Z,21.50
2018-06-01T23:00:30.370Z,21.50
2018-06-01T23:02:57.873Z,21.50
2018-06-01T23:05:25.483Z,21.50
2018-06-01T23:07:53.741Z,21.50
2018-06-01T23:10:21.252Z,21.50
2018-06-01T23:12:48.782Z,21.60
2018-06-01T23:15:16.349Z,21.60
2018-06-01T23:17:44.634Z,21.60
2018-06-01T23:20:12.216Z,21.60
2018-06-01T23:22:40.463Z,21.60
2018-06-01T23:25:07.973Z,21.60
2018-06-01T23:27:35.522Z,21.60
2018-06-01T23:30:03.794Z,21.60
2018-06-01T23:32:31.299Z,21.60
2018-06-01T23:34:58.788Z,21.60
2018-06-01T23:37:26.375Z,21.60
2018-06-01T23:39:53.881Z,21.60
2018-06-01T23:42:22.165Z,21.60
2018-06-01T23:44:49.709Z,21.60
2018-06-01T23:47:17.263Z,21.60
2018-06-01T23:49:44.763Z,21.60
2018-06-01T23:52:12.288Z,21.60
2018-06-01T23:54:39.815Z,21.60
2018-06-01T23:57:07.313Z,21.60
2018-06-01T23:59:34.803Z,21.60
